createdAt,value
2022-10-11T00:00:58.111Z,2.57
2022-10-11T00:03:27.201Z,2.00
2022-10-11T00:05:56.397Z,2.47
2022-10-11T00:08:25.308Z,1.83
2022-10-11T00:11:02.829Z,2.30
2022-10-11T00:13:31.828Z,2.23
2022-10-11T00:16:00.712Z,1.90
2022-10-11T00:18:29.743Z,1.90
2022-10-11T00:21:05.655Z,3.13
2022-10-11T00:23:34.563Z,1.47
2022-10-11T00:26:06.746Z,2.03
2022-10-11T00:28:36.423Z,1.90
2022-10-11T00:31:08.494Z,2.70
2022-10-11T00:33:37.866Z,2.73
2022-10-11T00:36:07.317Z,2.90
2022-10-11T00:38:36.887Z,2.93
2022-10-11T00:41:07.138Z,4.30
2022-10-11T00:43:36.420Z,2.73
2022-10-11T00:46:27.265Z,2.83
2022-10-11T00:48:58.455Z,2.47
2022-10-11T00:51:30.532Z,4.93
2022-10-11T00:54:01.207Z,2.00
2022-10-11T00:56:33.542Z,4.03
2022-10-11T00:59:09.261Z,2.10
2022-10-11T01:04:30.511Z,2.27
2022-10-11T01:07:20.448Z,2.57
2022-10-11T01:10:06.321Z,1.83
2022-10-11T01:12:37.548Z,2.50
2022-10-11T01:15:11.018Z,3.03
2022-10-11T01:17:47.951Z,2.80
2022-10-11T01:20:23.569Z,2.90
2022-10-11T01:23:04.065Z,1.90
2022-10-11T01:25:36.514Z,1.90
2022-10-11T01:28:28.352Z,2.57
2022-10-11T01:31:06.164Z,1.87
2022-10-11T01:34:02.684Z,1.93
2022-10-11T01:36:35.212Z,2.23
2022-10-11T01:39:08.235Z,2.90
2022-10-11T01:41:41.131Z,1.73
2022-10-11T01:44:11.420Z,2.00
2022-10-11T01:46:43.615Z,3.07
2022-10-11T01:49:13.127Z,2.20
2022-10-11T01:51:47.118Z,2.27
2022-10-11T01:55:07.644Z,2.60
2022-10-11T01:57:56.256Z,3.83
2022-10-11T02:00:27.293Z,2.00
2022-10-11T02:03:09.816Z,3.33
2022-10-11T02:05:43.661Z,3.77
2022-10-11T02:08:20.927Z,2.83
2022-10-11T02:10:55.237Z,3.03
2022-10-11T02:13:30.736Z,2.93
2022-10-11T02:16:04.549Z,2.20
2022-10-11T02:18:39.496Z,2.00
2022-10-11T02:21:11.691Z,2.83
2022-10-11T02:23:46.850Z,2.50
2022-10-11T02:26:16.425Z,2.73
2022-10-11T02:28:47.335Z,2.20
2022-10-11T02:31:19.417Z,2.20
2022-10-11T02:33:55.192Z,2.90
2022-10-11T02:36:32.359Z,3.50
2022-10-11T02:39:14.328Z,2.67
2022-10-11T02:41:43.443Z,2.77
2022-10-11T02:44:18.026Z,2.23
2022-10-11T02:46:48.942Z,2.40
2022-10-11T02:49:21.269Z,2.43
2022-10-11T02:51:50.149Z,2.60
2022-10-11T02:54:19.256Z,2.73
2022-10-11T02:56:48.077Z,3.60
2022-10-11T02:59:16.935Z,2.73
2022-10-11T03:01:45.520Z,2.87
2022-10-11T03:04:14.150Z,2.77
2022-10-11T03:06:44.322Z,2.77
2022-10-11T03:09:13.169Z,2.60
2022-10-11T03:11:41.916Z,1.67
2022-10-11T03:14:10.426Z,3.17
2022-10-11T03:16:38.977Z,2.13
2022-10-11T03:19:07.966Z,4.00
2022-10-11T03:21:36.797Z,2.67
2022-10-11T03:24:07.395Z,3.37
2022-10-11T03:26:36.017Z,2.93
2022-10-11T03:29:04.931Z,3.30
2022-10-11T03:31:33.548Z,2.33
2022-10-11T03:34:02.108Z,2.10
2022-10-11T03:36:30.730Z,2.20
2022-10-11T03:39:00.714Z,2.53
2022-10-11T03:41:30.711Z,2.33
2022-10-11T03:43:59.396Z,3.27
2022-10-11T03:46:27.937Z,2.83
2022-10-11T03:48:57.851Z,2.60
2022-10-11T03:51:26.540Z,2.60
2022-10-11T03:53:55.213Z,2.97
2022-10-11T03:56:23.967Z,2.80
2022-10-11T03:58:54.387Z,2.50
2022-10-11T04:01:23.020Z,3.57
2022-10-11T04:03:51.940Z,3.23
2022-10-11T04:06:20.432Z,2.93
2022-10-11T04:08:49.825Z,3.23
2022-10-11T04:11:18.331Z,2.63
2022-10-11T04:13:46.811Z,3.13
2022-10-11T04:16:17.019Z,2.87
2022-10-11T04:18:45.837Z,2.57
2022-10-11T04:21:14.341Z,2.30
2022-10-11T04:23:43.009Z,2.90
2022-10-11T04:26:12.068Z,2.03
2022-10-11T04:28:42.262Z,2.97
2022-10-11T04:31:10.811Z,2.70
2022-10-11T04:33:41.099Z,2.70
2022-10-11T04:36:09.951Z,3.13
2022-10-11T04:38:38.604Z,2.23
2022-10-11T04:41:12.238Z,2.93
2022-10-11T04:43:41.331Z,3.23
2022-10-11T04:46:11.802Z,2.20
2022-10-11T04:48:42.446Z,2.27
2022-10-11T04:51:11.100Z,4.23
2022-10-11T04:53:39.719Z,3.10
2022-10-11T04:56:11.803Z,2.17
2022-10-11T04:58:41.793Z,4.00
2022-10-11T05:01:11.445Z,3.23
2022-10-11T05:03:41.693Z,4.10
2022-10-11T05:06:10.612Z,4.50
2022-10-11T05:08:40.610Z,2.80
2022-10-11T05:11:14.805Z,2.80
2022-10-11T05:13:45.603Z,2.80
2022-10-11T05:16:15.387Z,2.83
2022-10-11T05:18:48.847Z,2.87
2022-10-11T05:21:19.702Z,4.23
2022-10-11T05:23:49.331Z,3.30
2022-10-11T05:26:18.143Z,4.80
2022-10-11T05:28:47.078Z,2.80
2022-10-11T05:31:16.618Z,4.13
2022-10-11T05:33:47.105Z,3.57
2022-10-11T05:36:16.139Z,3.80
2022-10-11T05:38:44.834Z,4.00
2022-10-11T05:41:15.289Z,3.80
2022-10-11T05:43:44.776Z,4.23
2022-10-11T05:46:13.625Z,2.87
2022-10-11T05:48:42.578Z,3.97
2022-10-11T05:51:13.755Z,4.53
2022-10-11T05:53:42.562Z,5.47
2022-10-11T05:56:21.427Z,2.63
2022-10-11T05:58:50.555Z,2.53
2022-10-11T06:01:21.972Z,2.27
2022-10-11T06:03:50.904Z,3.20
2022-10-11T06:06:21.823Z,3.30
2022-10-11T06:08:50.519Z,3.33
2022-10-11T06:11:20.905Z,3.93
2022-10-11T06:13:50.809Z,3.73
2022-10-11T06:16:19.865Z,3.70
2022-10-11T06:18:49.465Z,2.47
2022-10-11T06:21:18.116Z,3.20
2022-10-11T06:23:51.101Z,3.30
2022-10-11T06:26:20.966Z,4.00
2022-10-11T06:28:49.754Z,4.67
2022-10-11T06:31:18.536Z,3.23
2022-10-11T06:33:48.430Z,3.67
2022-10-11T06:36:18.893Z,2.37
2022-10-11T06:38:49.504Z,5.00
2022-10-11T06:41:20.283Z,2.77
2022-10-11T06:43:50.354Z,2.73
2022-10-11T06:46:20.003Z,3.10
2022-10-11T06:48:50.151Z,4.70
2022-10-11T06:51:23.111Z,2.60
2022-10-11T06:53:55.860Z,3.03
2022-10-11T06:56:25.382Z,3.50
2022-10-11T06:58:55.468Z,3.50
2022-10-11T07:01:24.978Z,3.10
2022-10-11T07:03:55.595Z,3.97
2022-10-11T07:06:25.771Z,3.87
2022-10-11T07:08:57.822Z,5.60
2022-10-11T07:11:28.605Z,3.10
2022-10-11T07:13:58.496Z,4.77
2022-10-11T07:16:28.085Z,3.90
2022-10-11T07:19:00.790Z,3.63
2022-10-11T07:21:31.083Z,4.23
2022-10-11T07:24:02.701Z,4.33
2022-10-11T07:26:38.157Z,3.97
2022-10-11T07:29:09.149Z,3.57
2022-10-11T07:31:39.765Z,3.30
2022-10-11T07:34:08.690Z,3.87
2022-10-11T07:36:37.700Z,2.70
2022-10-11T07:39:09.863Z,3.23
2022-10-11T07:41:44.587Z,3.10
2022-10-11T07:44:15.246Z,2.90
2022-10-11T07:46:44.341Z,3.67
2022-10-11T07:49:13.372Z,3.10
2022-10-11T07:51:42.377Z,2.73
2022-10-11T07:54:15.904Z,2.90
2022-10-11T07:56:44.950Z,3.90
2022-10-11T07:59:14.356Z,4.83
2022-10-11T08:01:43.712Z,3.00
2022-10-11T08:04:15.679Z,3.57
2022-10-11T08:06:47.721Z,3.10
2022-10-11T08:09:27.455Z,2.57
2022-10-11T08:12:02.488Z,4.50
2022-10-11T08:14:31.820Z,4.50
2022-10-11T08:17:19.036Z,3.13
2022-10-11T08:19:48.456Z,3.10
2022-10-11T08:22:17.759Z,2.70
2022-10-11T08:24:48.608Z,4.33
2022-10-11T08:27:20.824Z,3.60
2022-10-11T08:29:49.990Z,3.30
2022-10-11T08:32:19.392Z,4.03
2022-10-11T08:34:48.757Z,4.80
2022-10-11T08:37:17.634Z,5.10
2022-10-11T08:39:49.003Z,4.90
2022-10-11T08:42:26.742Z,4.27
2022-10-11T08:45:15.691Z,5.10
2022-10-11T08:47:46.890Z,5.50
2022-10-11T08:50:24.816Z,5.40
2022-10-11T08:52:58.967Z,4.77
2022-10-11T08:55:40.490Z,4.17
2022-10-11T08:58:15.479Z,4.80
2022-10-11T09:00:45.795Z,4.80
2022-10-11T09:03:39.155Z,6.13
2022-10-11T09:06:21.432Z,5.57
2022-10-11T09:09:16.830Z,4.27
2022-10-11T09:12:02.893Z,6.13
2022-10-11T09:14:51.635Z,4.70
2022-10-11T09:17:35.455Z,5.57
2022-10-11T09:20:46.486Z,4.53
2022-10-11T09:23:31.532Z,4.23
2022-10-11T09:26:07.301Z,4.30
2022-10-11T09:28:51.742Z,5.60
2022-10-11T09:31:21.150Z,4.87
2022-10-11T09:33:52.953Z,4.90
2022-10-11T09:36:33.239Z,5.07
2022-10-11T09:39:10.062Z,4.10
2022-10-11T09:41:51.205Z,5.10
2022-10-11T09:44:31.006Z,4.80
2022-10-11T09:47:00.803Z,6.67
2022-10-11T09:49:42.884Z,5.30
2022-10-11T09:52:17.945Z,8.50
2022-10-11T09:54:48.987Z,5.67
2022-10-11T09:57:27.471Z,6.50
2022-10-11T10:00:25.386Z,6.73
2022-10-11T10:03:00.098Z,5.87
2022-10-11T10:05:37.545Z,5.60
2022-10-11T10:08:25.797Z,9.20
2022-10-11T10:11:04.065Z,9.43
2022-10-11T10:13:47.060Z,6.27
2022-10-11T10:16:27.025Z,7.33
2022-10-11T10:18:59.620Z,7.50
2022-10-11T10:21:31.996Z,4.50
2022-10-11T10:24:04.905Z,1.10
2022-10-11T10:26:35.039Z,0.60
2022-10-11T10:29:19.020Z,0.73
2022-10-11T10:32:15.006Z,2.37
2022-10-11T10:34:56.859Z,3.33
2022-10-11T10:37:32.505Z,0.70
2022-10-11T10:40:09.435Z,1.30
2022-10-11T10:42:40.331Z,1.03
2022-10-11T10:45:21.117Z,1.30
2022-10-11T10:48:19.221Z,0.70
2022-10-11T10:50:57.348Z,0.90
2022-10-11T10:53:36.497Z,0.73
2022-10-11T10:56:15.581Z,0.93
2022-10-11T10:58:56.861Z,1.00
2022-10-11T11:01:31.215Z,1.10
2022-10-11T11:04:08.588Z,0.63
2022-10-11T11:06:42.272Z,1.60
2022-10-11T11:09:36.873Z,1.00
2022-10-11T11:12:29.581Z,0.67
2022-10-11T11:15:04.407Z,1.80
2022-10-11T11:17:48.071Z,0.80
2022-10-11T11:20:44.027Z,1.00
2022-10-11T11:23:27.449Z,0.60
2022-10-11T11:26:10.585Z,1.07
2022-10-11T11:29:02.893Z,0.70
2022-10-11T11:31:47.991Z,1.33
2022-10-11T11:34:26.392Z,1.23
2022-10-11T11:36:59.820Z,0.60
2022-10-11T11:39:36.233Z,0.90
2022-10-11T11:42:16.970Z,1.00
2022-10-11T11:44:48.758Z,0.93
2022-10-11T11:47:27.065Z,1.10
2022-10-11T11:50:02.420Z,0.50
2022-10-11T11:52:39.514Z,0.60
2022-10-11T11:55:17.533Z,1.50
2022-10-11T11:58:03.272Z,0.63
2022-10-11T12:00:49.984Z,1.00
2022-10-11T12:03:27.102Z,1.13
2022-10-11T12:06:28.553Z,1.03
2022-10-11T12:09:07.967Z,0.70
2022-10-11T12:11:50.090Z,0.80
2022-10-11T12:14:30.429Z,0.90
2022-10-11T12:17:15.942Z,0.80
2022-10-11T12:20:01.636Z,0.87
2022-10-11T12:25:42.513Z,2.80
2022-10-11T12:28:49.899Z,0.60
2022-10-11T12:31:24.671Z,1.03
2022-10-11T12:34:19.496Z,0.80
2022-10-11T12:36:51.298Z,0.70
2022-10-11T12:39:46.196Z,0.40
2022-10-11T12:42:32.455Z,0.73
2022-10-11T12:45:32.391Z,0.70
2022-10-11T12:48:24.897Z,0.87
2022-10-11T12:51:10.526Z,0.43
2022-10-11T12:54:29.074Z,0.43
2022-10-11T12:57:28.028Z,0.80
2022-10-11T13:00:17.889Z,1.70
2022-10-11T13:02:48.355Z,1.37
2022-10-11T13:05:25.532Z,0.60
2022-10-11T13:08:04.383Z,0.50
2022-10-11T13:10:45.918Z,1.10
2022-10-11T13:13:23.669Z,0.90
2022-10-11T13:15:59.113Z,0.87
2022-10-11T13:18:29.155Z,1.07
2022-10-11T13:20:58.133Z,0.70
2022-10-11T13:23:31.164Z,0.50
2022-10-11T13:26:02.705Z,0.50
2022-10-11T13:28:36.521Z,0.97
2022-10-11T13:31:08.082Z,0.30
2022-10-11T13:33:42.822Z,0.60
2022-10-11T13:36:18.002Z,0.43
2022-10-11T13:38:55.666Z,0.80
2022-10-11T13:41:27.410Z,0.50
2022-10-11T13:43:58.103Z,0.50
2022-10-11T13:46:31.086Z,0.43
2022-10-11T13:49:04.637Z,0.60
2022-10-11T13:51:36.317Z,0.73
2022-10-11T13:54:09.473Z,0.80
2022-10-11T13:56:47.757Z,0.67
2022-10-11T13:59:22.036Z,0.77
2022-10-11T14:02:00.900Z,0.90
2022-10-11T14:04:42.241Z,1.33
2022-10-11T14:07:25.618Z,0.60
2022-10-11T14:09:57.379Z,0.67
2022-10-11T14:12:32.588Z,1.00
2022-10-11T14:15:02.335Z,0.60
2022-10-11T14:17:49.369Z,1.03
2022-10-11T14:20:22.122Z,0.63
2022-10-11T14:22:52.911Z,0.53
2022-10-11T14:25:22.057Z,0.73
2022-10-11T14:27:52.533Z,0.80
2022-10-11T14:30:26.122Z,0.50
2022-10-11T14:33:01.383Z,0.77
2022-10-11T14:35:33.667Z,0.40
2022-10-11T14:38:02.852Z,0.53
2022-10-11T14:40:33.320Z,1.27
2022-10-11T14:43:04.219Z,0.70
2022-10-11T14:45:33.176Z,0.90
2022-10-11T14:48:03.597Z,0.63
2022-10-11T14:50:39.428Z,0.57
2022-10-11T14:53:09.766Z,0.60
2022-10-11T14:55:39.628Z,1.17
2022-10-11T14:58:10.411Z,1.00
2022-10-11T15:00:39.763Z,0.77
2022-10-11T15:03:11.190Z,1.43
2022-10-11T15:05:40.409Z,0.50
2022-10-11T15:08:09.556Z,1.47
2022-10-11T15:10:41.017Z,0.90
2022-10-11T15:13:10.810Z,0.90
2022-10-11T15:15:41.870Z,0.67
2022-10-11T15:18:16.869Z,0.47
2022-10-11T15:20:47.077Z,0.77
2022-10-11T15:23:16.354Z,0.60
2022-10-11T15:25:46.055Z,1.10
2022-10-11T15:28:27.733Z,0.93
2022-10-11T15:30:57.013Z,1.23
2022-10-11T15:33:28.132Z,1.37
2022-10-11T15:35:56.967Z,0.90
2022-10-11T15:38:28.469Z,0.90
2022-10-11T15:40:58.581Z,0.80
2022-10-11T15:43:28.638Z,3.60
2022-10-11T15:45:58.485Z,0.83
2022-10-11T15:48:29.508Z,1.33
2022-10-11T15:50:59.103Z,0.80
2022-10-11T15:53:31.551Z,0.80
2022-10-11T15:56:03.297Z,0.70
2022-10-11T15:58:35.099Z,1.63
2022-10-11T16:01:08.138Z,1.00
2022-10-11T16:06:27.806Z,0.70
2022-10-11T16:08:56.484Z,1.10
2022-10-11T16:11:25.318Z,0.80
2022-10-11T16:13:54.174Z,0.93
2022-10-11T16:16:23.322Z,1.13
2022-10-11T16:18:53.624Z,1.17
2022-10-11T16:21:25.133Z,0.90
2022-10-11T16:23:54.387Z,1.60
2022-10-11T16:26:23.560Z,0.83
2022-10-11T16:28:52.457Z,3.20
2022-10-11T16:31:21.593Z,3.37
2022-10-11T16:33:53.055Z,6.23
2022-10-11T16:36:36.060Z,2.67
2022-10-11T16:39:07.924Z,1.40
2022-10-11T16:41:37.386Z,1.67
2022-10-11T16:44:06.467Z,1.40
2022-10-11T16:46:36.046Z,3.43
2022-10-11T16:49:06.494Z,2.33
2022-10-11T16:51:37.906Z,1.80
2022-10-11T16:54:08.384Z,1.10
2022-10-11T16:56:40.219Z,1.67
2022-10-11T16:59:09.209Z,1.77
2022-10-11T17:01:42.628Z,0.70
2022-10-11T17:04:12.309Z,1.30
2022-10-11T17:06:44.282Z,1.93
2022-10-11T17:09:16.555Z,5.43
2022-10-11T17:11:46.048Z,4.70
2022-10-11T17:14:15.390Z,1.50
2022-10-11T17:16:44.995Z,1.27
2022-10-11T17:19:15.299Z,0.80
2022-10-11T17:21:45.779Z,1.70
2022-10-11T17:24:17.748Z,1.57
2022-10-11T17:26:47.505Z,2.60
2022-10-11T17:29:17.606Z,5.10
2022-10-11T17:31:49.143Z,3.10
2022-10-11T17:34:19.148Z,3.63
2022-10-11T17:36:49.734Z,2.63
2022-10-11T17:39:20.916Z,4.63
2022-10-11T17:41:49.996Z,1.90
2022-10-11T17:44:19.239Z,1.53
2022-10-11T17:46:48.819Z,1.30
2022-10-11T17:49:17.900Z,2.00
2022-10-11T17:51:48.402Z,2.13
2022-10-11T17:54:18.936Z,1.87
2022-10-11T17:56:48.147Z,4.30
2022-10-11T17:59:18.972Z,1.60
2022-10-11T18:01:47.885Z,1.67
2022-10-11T18:04:18.183Z,2.13
2022-10-11T18:06:49.738Z,1.33
2022-10-11T18:09:21.131Z,2.57
2022-10-11T18:11:50.571Z,6.37
2022-10-11T18:14:19.505Z,9.83
2022-10-11T18:16:48.636Z,7.00
2022-10-11T18:19:17.427Z,2.30
2022-10-11T18:21:46.234Z,1.53
2022-10-11T18:24:17.227Z,2.30
2022-10-11T18:26:48.982Z,2.60
2022-10-11T18:29:20.826Z,4.23
2022-10-11T18:31:50.059Z,2.70
2022-10-11T18:34:40.424Z,2.77
2022-10-11T18:37:11.068Z,3.73
2022-10-11T18:39:42.555Z,5.00
2022-10-11T18:42:13.818Z,6.27
2022-10-11T18:44:56.754Z,5.97
2022-10-11T18:47:28.217Z,6.07
2022-10-11T18:49:59.764Z,5.57
2022-10-11T18:52:30.523Z,6.70
2022-10-11T18:55:03.208Z,10.80
2022-10-11T18:57:33.837Z,7.87
2022-10-11T19:00:11.698Z,8.50
2022-10-11T19:02:52.284Z,8.50
2022-10-11T19:05:21.949Z,5.10
2022-10-11T19:07:54.028Z,5.97
2022-10-11T19:10:25.317Z,7.07
2022-10-11T19:12:59.864Z,5.30
2022-10-11T19:15:29.175Z,5.43
2022-10-11T19:18:00.325Z,3.80
2022-10-11T19:20:32.409Z,4.50
2022-10-11T19:23:02.683Z,3.40
2022-10-11T19:25:31.703Z,4.07
2022-10-11T19:28:02.259Z,10.50
2022-10-11T19:30:34.576Z,9.90
2022-10-11T19:33:04.995Z,4.60
2022-10-11T19:35:34.271Z,3.67
2022-10-11T19:38:04.453Z,6.00
2022-10-11T19:40:36.038Z,3.67
2022-10-11T19:43:06.584Z,4.57
2022-10-11T19:45:38.476Z,2.80
2022-10-11T19:48:07.698Z,3.83
2022-10-11T19:50:40.287Z,4.30
2022-10-11T19:53:09.892Z,2.40
2022-10-11T19:55:42.928Z,3.00
2022-10-11T19:58:23.332Z,3.87
2022-10-11T20:01:01.610Z,4.80
2022-10-11T20:03:30.951Z,9.00
2022-10-11T20:06:01.621Z,6.53
2022-10-11T20:08:31.616Z,6.20
2022-10-11T20:11:02.631Z,5.70
2022-10-11T20:13:34.984Z,6.43
2022-10-11T20:16:06.298Z,11.03
2022-10-11T20:18:35.436Z,2.80
2022-10-11T20:21:05.187Z,4.20
2022-10-11T20:26:10.755Z,2.53
2022-10-11T20:28:42.176Z,4.40
2022-10-11T20:31:14.260Z,5.03
2022-10-11T20:33:43.716Z,4.80
2022-10-11T20:36:13.474Z,4.90
2022-10-11T20:38:43.608Z,5.70
2022-10-11T20:41:14.037Z,5.37
2022-10-11T20:43:49.246Z,4.17
2022-10-11T20:46:19.376Z,4.77
2022-10-11T20:48:50.103Z,5.17
2022-10-11T20:51:24.000Z,4.00
2022-10-11T20:53:52.984Z,4.17
2022-10-11T20:56:22.949Z,2.97
2022-10-11T20:58:55.471Z,2.83
2022-10-11T21:01:26.652Z,4.73
2022-10-11T21:03:56.308Z,5.60
2022-10-11T21:06:25.398Z,5.47
2022-10-11T21:08:56.381Z,3.83
2022-10-11T21:11:27.262Z,6.40
2022-10-11T21:13:58.301Z,5.83
2022-10-11T21:16:28.033Z,3.90
2022-10-11T21:18:57.849Z,3.70
2022-10-11T21:21:26.992Z,4.77
2022-10-11T21:23:56.299Z,4.83
2022-10-11T21:26:25.341Z,3.43
2022-10-11T21:28:54.368Z,5.13
2022-10-11T21:31:29.729Z,2.90
2022-10-11T21:34:01.698Z,3.50
2022-10-11T21:36:30.759Z,3.00
2022-10-11T21:38:59.962Z,3.50
2022-10-11T21:41:30.539Z,3.27
2022-10-11T21:43:59.615Z,3.57
2022-10-11T21:47:04.766Z,4.47
2022-10-11T21:49:21.180Z,5.00
2022-10-11T21:51:50.073Z,5.47
2022-10-11T21:54:19.145Z,4.87
2022-10-11T21:56:48.754Z,4.80
2022-10-11T21:59:17.887Z,4.30
2022-10-11T22:01:48.829Z,4.03
2022-10-11T22:04:17.776Z,4.73
2022-10-11T22:06:48.726Z,3.83
2022-10-11T22:09:17.852Z,6.53
2022-10-11T22:11:46.591Z,3.77
2022-10-11T22:14:15.419Z,3.70
2022-10-11T22:16:44.519Z,6.30
2022-10-11T22:19:15.224Z,5.43
2022-10-11T22:21:45.341Z,4.33
2022-10-11T22:24:15.040Z,4.20
2022-10-11T22:26:43.994Z,4.17
2022-10-11T22:29:16.385Z,4.53
2022-10-11T22:31:45.518Z,5.10
2022-10-11T22:34:16.058Z,5.20
2022-10-11T22:36:45.266Z,4.77
2022-10-11T22:39:15.857Z,4.30
2022-10-11T22:41:44.750Z,4.50
2022-10-11T22:44:17.108Z,5.37
2022-10-11T22:46:45.934Z,4.50
2022-10-11T22:49:16.968Z,4.67
2022-10-11T22:51:46.999Z,4.60
2022-10-11T22:54:15.884Z,5.77
2022-10-11T22:56:44.612Z,3.20
2022-10-11T22:59:13.670Z,4.87
2022-10-11T23:01:42.708Z,4.03
2022-10-11T23:04:16.290Z,4.40
2022-10-11T23:06:46.857Z,5.50
2022-10-11T23:09:16.348Z,5.77
2022-10-11T23:11:45.201Z,3.73
2022-10-11T23:14:14.303Z,3.77
2022-10-11T23:16:43.039Z,4.33
2022-10-11T23:19:11.821Z,3.30
2022-10-11T23:21:40.573Z,5.20
2022-10-11T23:24:12.477Z,4.70
2022-10-11T23:26:41.163Z,3.00
2022-10-11T23:29:09.969Z,4.70
2022-10-11T23:31:39.465Z,3.20
2022-10-11T23:34:08.581Z,3.57
2022-10-11T23:36:37.438Z,3.70
2022-10-11T23:39:06.349Z,4.40
2022-10-11T23:41:36.707Z,3.40
2022-10-11T23:44:05.850Z,4.33
2022-10-11T23:46:34.689Z,6.13
2022-10-11T23:51:40.188Z,3.40
2022-10-11T23:54:08.953Z,4.53
2022-10-11T23:56:39.051Z,4.40
2022-10-11T23:59:08.167Z,4.30
